createdAt,value
2017-08-22T00:00:30.660Z,77.8
2017-08-22T00:01:29.856Z,78
2017-08-22T00:02:29.429Z,78.2
2017-08-22T00:03:28.436Z,78.2
2017-08-22T00:04:28.021Z,78
2017-08-22T00:05:27.096Z,78.5
2017-08-22T00:06:26.439Z,77.9
2017-08-22T00:06:56.822Z,77.9
2017-08-22T00:07:27.313Z,78.8
2017-08-22T00:07:57.595Z,78.8
2017-08-22T00:08:28.099Z,78.5
2017-08-22T00:09:24.268Z,78.1
2017-08-22T00:10:23.476Z,78.3
2017-08-22T00:12:21.549Z,79.3
2017-08-22T00:13:21.120Z,78.5
2017-08-22T00:14:20.312Z,78.6
2017-08-22T00:15:19.520Z,78.2
2017-08-22T00:16:18.705Z,78.3
2017-08-22T00:17:18.038Z,78.5
2017-08-22T00:18:17.233Z,78.6
2017-08-22T00:19:16.426Z,78.4
2017-08-22T00:20:16.018Z,78.3
2017-08-22T00:21:15.092Z,78.2
2017-08-22T00:22:14.170Z,77.9
2017-08-22T00:23:13.345Z,78.7
2017-08-22T00:24:12.539Z,78
2017-08-22T00:25:11.996Z,78
2017-08-22T00:26:11.201Z,77.2
2017-08-22T00:27:10.381Z,77.1
2017-08-22T00:28:09.574Z,77.5
2017-08-22T00:29:08.660Z,77.2
2017-08-22T00:30:08.266Z,77.1
2017-08-22T00:31:07.461Z,77.4
2017-08-22T00:32:06.536Z,77
2017-08-22T00:33:05.731Z,77.5
2017-08-22T00:34:05.431Z,77.2
2017-08-22T00:35:04.515Z,77
2017-08-22T00:36:03.722Z,76.8
2017-08-22T00:37:02.800Z,76.8
2017-08-22T00:38:02.373Z,77.4
2017-08-22T00:39:01.336Z,77.3
2017-08-22T00:40:00.411Z,77.3
2017-08-22T00:40:59.866Z,77
2017-08-22T00:41:59.332Z,77.5
2017-08-22T00:42:58.531Z,77.1
2017-08-22T00:43:57.630Z,77.2
2017-08-22T00:44:56.857Z,77.2
2017-08-22T00:45:56.312Z,77.5
2017-08-22T00:46:55.153Z,77.8
2017-08-22T00:47:54.738Z,78
2017-08-22T00:48:53.945Z,77.8
2017-08-22T00:49:53.133Z,77.7
2017-08-22T00:51:51.726Z,77.6
2017-08-22T00:52:50.926Z,77.4
2017-08-22T00:53:50.121Z,77.6
2017-08-22T00:54:49.200Z,77.4
2017-08-22T00:55:48.653Z,77.5
2017-08-22T00:56:47.841Z,78.2
2017-08-22T00:57:47.032Z,78
2017-08-22T00:58:46.224Z,78
2017-08-22T00:59:45.676Z,77.9
2017-08-22T01:00:44.513Z,77.5
2017-08-22T01:01:43.720Z,77.5
2017-08-22T01:02:14.225Z,77.5
2017-08-22T01:05:40.761Z,78.4
2017-08-22T01:06:40.332Z,78.1
2017-08-22T01:07:39.299Z,78.2
2017-08-22T01:08:38.509Z,78.8
2017-08-22T01:09:37.587Z,78.6
2017-08-22T01:10:37.171Z,78.3
2017-08-22T01:11:36.241Z,78.1
2017-08-22T01:12:35.430Z,78.3
2017-08-22T01:13:34.775Z,78.1
2017-08-22T01:14:33.727Z,78.5
2017-08-22T01:15:33.311Z,78.4
2017-08-22T01:16:32.495Z,78.3
2017-08-22T01:17:31.700Z,78.2
2017-08-22T01:18:30.919Z,78
2017-08-22T01:19:30.266Z,77.9
2017-08-22T01:20:29.332Z,77.8
2017-08-22T01:21:28.461Z,78.3
2017-08-22T01:22:27.658Z,78.5
2017-08-22T01:23:27.237Z,78.5
2017-08-22T01:24:26.321Z,78.3
2017-08-22T01:25:25.513Z,79.1
2017-08-22T01:26:24.708Z,78.8
2017-08-22T01:27:23.902Z,79.1
2017-08-22T01:28:23.247Z,79.3
2017-08-22T01:29:22.434Z,78.9
2017-08-22T01:30:21.498Z,79
2017-08-22T01:31:20.697Z,78.8
2017-08-22T01:31:51.104Z,78.8
2017-08-22T01:32:21.606Z,79.1
2017-08-22T01:32:51.983Z,79.1
2017-08-22T01:33:22.370Z,79.2
2017-08-22T01:34:18.423Z,79.2
2017-08-22T01:35:17.883Z,79.1
2017-08-22T01:36:16.962Z,79.1
2017-08-22T01:37:16.043Z,78.8
2017-08-22T01:38:15.620Z,78.9
2017-08-22T01:39:14.814Z,79
2017-08-22T01:40:13.773Z,79.2
2017-08-22T01:41:12.832Z,79.3
2017-08-22T01:42:12.408Z,78.8
2017-08-22T01:43:11.743Z,79.5
2017-08-22T01:44:10.934Z,78.8
2017-08-22T01:45:10.122Z,79
2017-08-22T01:46:09.340Z,78.6
2017-08-22T01:47:08.423Z,78.3
2017-08-22T01:48:07.995Z,78.7
2017-08-22T01:50:06.086Z,78.2
2017-08-22T01:51:05.564Z,78.8
2017-08-22T01:52:04.760Z,78.6
2017-08-22T01:53:03.856Z,78.6
2017-08-22T01:55:02.323Z,78.4
2017-08-22T01:56:01.397Z,78.6
2017-08-22T01:57:00.600Z,79.1
2017-08-22T01:58:00.183Z,78.9
2017-08-22T01:58:59.127Z,78.6
2017-08-22T01:59:58.352Z,78.3
2017-08-22T02:00:57.819Z,78.4
2017-08-22T02:01:57.009Z,78.6
2017-08-22T02:02:56.201Z,78.8
2017-08-22T02:03:55.266Z,79.3
2017-08-22T02:04:54.715Z,79
2017-08-22T02:05:53.912Z,79.1
2017-08-22T02:06:53.116Z,79
2017-08-22T02:07:52.311Z,79.3
2017-08-22T02:08:51.489Z,79.4
2017-08-22T02:09:50.746Z,79.2
2017-08-22T02:10:49.818Z,78.9
2017-08-22T02:11:49.006Z,79.1
2017-08-22T02:12:48.575Z,79.5
2017-08-22T02:13:47.774Z,79
2017-08-22T02:14:46.845Z,79.2
2017-08-22T02:15:46.314Z,79.8
2017-08-22T02:16:45.521Z,79.5
2017-08-22T02:17:44.590Z,79.7
2017-08-22T02:18:43.786Z,79.8
2017-08-22T02:19:42.854Z,79.6
2017-08-22T02:20:42.067Z,79.7
2017-08-22T02:21:41.658Z,79.9
2017-08-22T02:22:40.858Z,79.7
2017-08-22T02:23:40.044Z,79.8
2017-08-22T02:25:38.503Z,80
2017-08-22T02:26:37.463Z,79.7
2017-08-22T02:27:36.536Z,79.5
2017-08-22T02:28:36.116Z,79.4
2017-08-22T02:29:35.316Z,79.5
2017-08-22T02:30:34.501Z,79.6
2017-08-22T02:31:33.694Z,79.7
2017-08-22T02:32:32.785Z,79.9
2017-08-22T02:33:31.881Z,80.8
2017-08-22T02:34:31.337Z,80.1
2017-08-22T02:35:30.410Z,80.2
2017-08-22T02:37:28.871Z,80.6
2017-08-22T02:38:28.450Z,80.1
2017-08-22T02:39:27.414Z,80.3
2017-08-22T02:40:26.613Z,80.3
2017-08-22T02:41:25.701Z,79.9
2017-08-22T02:42:24.893Z,80.4
2017-08-22T02:43:24.476Z,80.3
2017-08-22T02:44:23.555Z,80.9
2017-08-22T02:45:22.639Z,80.3
2017-08-22T02:46:22.214Z,80.3
2017-08-22T02:47:20.944Z,80
2017-08-22T02:48:20.649Z,80.3
2017-08-22T02:49:19.851Z,80.8
2017-08-22T02:50:18.688Z,80.5
2017-08-22T02:51:17.768Z,80.2
2017-08-22T02:52:17.226Z,80.3
2017-08-22T02:53:16.311Z,80.1
2017-08-22T02:54:15.518Z,80.8
2017-08-22T02:55:14.727Z,80.6
2017-08-22T02:56:13.933Z,80.2
2017-08-22T02:57:13.126Z,80.7
2017-08-22T02:58:12.716Z,80.5
2017-08-22T02:59:12.055Z,80.4
2017-08-22T03:00:10.889Z,80.8
2017-08-22T03:01:10.467Z,80.7
2017-08-22T03:02:09.554Z,80.7
2017-08-22T03:03:08.624Z,80.6
2017-08-22T03:04:07.675Z,81.4
2017-08-22T03:05:07.252Z,80.8
2017-08-22T03:06:06.459Z,80.5
2017-08-22T03:07:05.412Z,80.9
2017-08-22T03:08:04.593Z,80.6
2017-08-22T03:09:03.787Z,80.8
2017-08-22T03:10:03.366Z,80.7
2017-08-22T03:11:02.448Z,80.8
2017-08-22T03:12:01.541Z,80.9
2017-08-22T03:13:00.622Z,81.1
2017-08-22T03:14:00.196Z,81.1
2017-08-22T03:14:59.286Z,81.2
2017-08-22T03:15:58.616Z,81.3
2017-08-22T03:16:57.693Z,81.3
2017-08-22T03:17:56.887Z,81.3
2017-08-22T03:18:56.094Z,81.1
2017-08-22T03:19:26.492Z,81.1
2017-08-22T03:20:54.362Z,81.2
2017-08-22T03:21:53.554Z,81.5
2017-08-22T03:23:52.106Z,81.5
2017-08-22T03:24:51.173Z,80.8
2017-08-22T03:25:50.363Z,81.2
2017-08-22T03:26:49.622Z,81.2
2017-08-22T03:27:48.825Z,81.3
2017-08-22T03:28:48.023Z,81.2
2017-08-22T03:29:47.622Z,81.1
2017-08-22T03:30:46.710Z,81.1
2017-08-22T03:31:45.953Z,81.4
2017-08-22T03:32:44.904Z,81.9
2017-08-22T03:33:44.100Z,81.5
2017-08-22T03:34:43.309Z,81.2
2017-08-22T03:35:42.532Z,81.1
2017-08-22T03:36:41.717Z,81.5
2017-08-22T03:37:40.902Z,81.7
2017-08-22T03:38:40.353Z,82
2017-08-22T03:39:39.431Z,81.9
2017-08-22T03:40:38.896Z,81.6
2017-08-22T03:41:37.848Z,81.6
2017-08-22T03:42:37.428Z,81.3
2017-08-22T03:43:36.366Z,81.3
2017-08-22T03:44:35.565Z,81.1
2017-08-22T03:45:34.515Z,81
2017-08-22T03:46:34.097Z,81.2
2017-08-22T03:47:33.285Z,81.3
2017-08-22T03:48:32.476Z,81.4
2017-08-22T03:49:31.547Z,80.9
2017-08-22T03:50:30.750Z,81.1
2017-08-22T03:51:29.938Z,81
2017-08-22T03:52:29.128Z,80.9
2017-08-22T03:53:28.690Z,81.4
2017-08-22T03:54:27.833Z,81.1
2017-08-22T03:55:26.931Z,80.8
2017-08-22T03:56:25.898Z,81
2017-08-22T03:57:24.984Z,80.7
2017-08-22T03:58:24.683Z,81.1
2017-08-22T03:59:23.648Z,80.9
2017-08-22T04:00:22.844Z,81.1
2017-08-22T04:00:53.354Z,81.1
2017-08-22T04:02:21.232Z,81.2
2017-08-22T04:03:20.426Z,81
2017-08-22T04:04:19.501Z,81
2017-08-22T04:05:18.970Z,81
2017-08-22T04:06:18.056Z,81.2
2017-08-22T04:07:17.648Z,81.3
2017-08-22T04:08:16.731Z,81.3
2017-08-22T04:09:15.820Z,81.3
2017-08-22T04:10:15.011Z,81.9
2017-08-22T04:11:14.209Z,81.7
2017-08-22T04:11:44.717Z,81.7
2017-08-22T04:12:14.989Z,81.5
2017-08-22T04:12:45.380Z,81.5
2017-08-22T04:14:11.912Z,81.1
2017-08-22T04:15:11.101Z,81.4
2017-08-22T04:16:10.292Z,81.8
2017-08-22T04:17:09.472Z,81.3
2017-08-22T04:18:08.423Z,81.4
2017-08-22T04:19:08.003Z,81.2
2017-08-22T04:20:07.186Z,81.6
2017-08-22T04:21:06.381Z,81.1
2017-08-22T04:22:05.444Z,81.5
2017-08-22T04:23:04.517Z,81.3
2017-08-22T04:24:03.728Z,81.2
2017-08-22T04:25:02.810Z,81.5
2017-08-22T04:26:02.513Z,81.6
2017-08-22T04:27:01.719Z,81.6
2017-08-22T04:28:00.823Z,81.4
2017-08-22T04:28:59.891Z,81.7
2017-08-22T04:29:59.085Z,81.5
2017-08-22T04:30:58.276Z,82.2
2017-08-22T04:31:57.350Z,81.9
2017-08-22T04:32:56.546Z,81.9
2017-08-22T04:33:55.736Z,81.7
2017-08-22T04:35:54.188Z,82.1
2017-08-22T04:36:53.521Z,82.2
2017-08-22T04:37:52.618Z,81.8
2017-08-22T04:38:23.125Z,81.8
2017-08-22T04:38:53.400Z,82.1
2017-08-22T04:39:51.075Z,82.5
2017-08-22T04:40:50.294Z,82.3
2017-08-22T04:41:49.570Z,82.5
2017-08-22T04:42:48.649Z,82.6
2017-08-22T04:43:47.724Z,82.4
2017-08-22T04:44:47.427Z,82.3
2017-08-22T04:45:46.505Z,82.4
2017-08-22T04:46:45.694Z,82.9
2017-08-22T04:47:44.896Z,82.5
2017-08-22T04:48:43.853Z,82.6
2017-08-22T04:49:43.428Z,83.1
2017-08-22T04:50:42.608Z,82.6
2017-08-22T04:52:40.681Z,82.6
2017-08-22T04:53:39.873Z,82.6
2017-08-22T04:54:39.449Z,82.5
2017-08-22T04:55:38.409Z,83.1
2017-08-22T04:56:37.494Z,83.2
2017-08-22T04:57:36.700Z,82.8
2017-08-22T04:58:35.880Z,83
2017-08-22T04:59:35.333Z,83
2017-08-22T05:00:34.526Z,82.9
2017-08-22T05:01:33.725Z,82.9
2017-08-22T05:02:32.807Z,82.8
2017-08-22T05:03:32.009Z,82.9
2017-08-22T05:04:31.199Z,83.1
2017-08-22T05:05:30.387Z,83.1
2017-08-22T05:06:29.580Z,83
2017-08-22T05:07:28.813Z,83.2
2017-08-22T05:08:27.892Z,83.1
2017-08-22T05:09:27.087Z,83.3
2017-08-22T05:10:26.279Z,82.9
2017-08-22T05:11:25.472Z,82.9
2017-08-22T05:12:25.049Z,82.6
2017-08-22T05:13:24.133Z,82.5
2017-08-22T05:14:23.204Z,82.6
2017-08-22T05:15:22.665Z,82.3
2017-08-22T05:16:21.870Z,82.3
2017-08-22T05:17:21.062Z,82.6
2017-08-22T05:18:20.257Z,82.6
2017-08-22T05:19:19.331Z,82.4
2017-08-22T05:21:17.675Z,82.6
2017-08-22T05:22:16.771Z,82.2
2017-08-22T05:24:15.354Z,81.8
2017-08-22T05:25:14.559Z,81.6
2017-08-22T05:26:13.753Z,81.9
2017-08-22T05:27:12.950Z,81.5
2017-08-22T05:28:12.032Z,81.6
2017-08-22T05:29:11.239Z,81.6
2017-08-22T05:30:10.825Z,81.9
2017-08-22T05:30:41.349Z,81.9
2017-08-22T05:32:09.236Z,81.8
2017-08-22T05:33:08.422Z,81.6
2017-08-22T05:34:07.604Z,81.7
2017-08-22T05:36:05.571Z,81.6
2017-08-22T05:37:05.033Z,81.7
2017-08-22T05:38:04.226Z,81.7
2017-08-22T05:39:03.406Z,81.9
2017-08-22T05:40:02.512Z,81.8
2017-08-22T05:41:01.864Z,81.7
2017-08-22T05:42:00.704Z,81.8
2017-08-22T05:43:59.682Z,82
2017-08-22T05:45:57.749Z,81.9
2017-08-22T05:46:56.925Z,82
2017-08-22T05:47:56.125Z,82
2017-08-22T05:48:55.709Z,81.6
2017-08-22T05:49:54.898Z,82.1
2017-08-22T05:50:54.090Z,82.3
2017-08-22T05:51:53.307Z,82
2017-08-22T05:52:52.374Z,81.8
2017-08-22T05:53:51.455Z,81.5
2017-08-22T05:54:50.649Z,82
2017-08-22T05:55:49.841Z,81.9
2017-08-22T05:56:48.926Z,82.3
2017-08-22T05:57:48.376Z,81.8
2017-08-22T05:58:47.446Z,82
2017-08-22T05:59:46.640Z,82.3
2017-08-22T06:00:45.838Z,81.9
2017-08-22T06:01:45.046Z,81.5
2017-08-22T06:02:44.634Z,81.2
2017-08-22T06:03:43.828Z,81.3
2017-08-22T06:04:43.009Z,81.5
2017-08-22T06:05:41.850Z,81.3
2017-08-22T06:06:41.436Z,81
2017-08-22T06:07:40.511Z,81.3
2017-08-22T06:08:39.711Z,81.4
2017-08-22T06:09:38.778Z,81
2017-08-22T06:10:37.983Z,80.8
2017-08-22T06:11:37.072Z,80
2017-08-22T06:12:36.773Z,80.7
2017-08-22T06:13:35.973Z,80.9
2017-08-22T06:14:35.047Z,79.9
2017-08-22T06:15:34.132Z,79.6
2017-08-22T06:16:33.205Z,79.6
2017-08-22T06:17:32.408Z,79.4
2017-08-22T06:18:31.604Z,79.4
2017-08-22T06:19:30.811Z,79.6
2017-08-22T06:20:30.001Z,79
2017-08-22T06:21:29.196Z,79.5
2017-08-22T06:22:28.893Z,79.7
2017-08-22T06:23:28.071Z,79.8
2017-08-22T06:25:26.193Z,80.6
2017-08-22T06:26:25.474Z,79.4
2017-08-22T06:27:24.549Z,78
2017-08-22T06:28:24.126Z,77.9
2017-08-22T06:29:23.193Z,78.2
2017-08-22T06:30:22.143Z,78.4
2017-08-22T06:32:20.725Z,78.3
2017-08-22T06:33:19.907Z,78.4
2017-08-22T06:34:19.117Z,77.4
2017-08-22T06:35:18.310Z,77.8
2017-08-22T06:36:17.531Z,77.8
2017-08-22T06:37:16.991Z,77.8
2017-08-22T06:38:16.332Z,77.3
2017-08-22T06:39:15.403Z,76.8
2017-08-22T06:40:14.598Z,76.8
2017-08-22T06:41:13.689Z,76.7
2017-08-22T06:42:12.768Z,76.8
2017-08-22T06:43:12.468Z,76.8
2017-08-22T06:44:11.649Z,77.3
2017-08-22T06:45:10.727Z,77.1
2017-08-22T06:46:09.923Z,76.8
2017-08-22T06:47:09.132Z,77.1
2017-08-22T06:48:08.201Z,78.4
2017-08-22T06:49:07.272Z,77.7
2017-08-22T06:50:07.003Z,76.4
2017-08-22T06:51:06.078Z,76.2
2017-08-22T06:52:05.277Z,76.6
2017-08-22T06:53:04.121Z,76.6
2017-08-22T06:54:03.807Z,76.4
2017-08-22T06:55:02.760Z,77.2
2017-08-22T06:56:02.328Z,76.4
2017-08-22T06:56:32.836Z,76.4
2017-08-22T06:57:03.221Z,76
2017-08-22T06:57:33.493Z,76
2017-08-22T06:58:59.869Z,76.1
2017-08-22T06:59:59.066Z,76.3
2017-08-22T07:00:58.271Z,76.6
2017-08-22T07:01:57.457Z,76.1
2017-08-22T07:02:56.650Z,76.2
2017-08-22T07:03:55.734Z,76.3
2017-08-22T07:04:54.924Z,76.6
2017-08-22T07:05:54.508Z,75.4
2017-08-22T07:06:53.590Z,75.6
2017-08-22T07:07:23.980Z,75.6
2017-08-22T07:07:54.376Z,75.7
2017-08-22T07:08:51.953Z,75.9
2017-08-22T07:09:51.151Z,75.7
2017-08-22T07:10:50.605Z,75.8
2017-08-22T07:11:49.805Z,75.7
2017-08-22T07:12:48.761Z,75.7
2017-08-22T07:13:48.335Z,75.1
2017-08-22T07:15:46.827Z,75.4
2017-08-22T07:17:44.901Z,75.2
2017-08-22T07:19:43.757Z,75.5
2017-08-22T07:20:42.827Z,75.6
2017-08-22T07:21:41.907Z,75.9
2017-08-22T07:22:41.479Z,75.9
2017-08-22T07:23:40.673Z,75.6
2017-08-22T07:24:39.863Z,74.8
2017-08-22T07:25:39.043Z,74.7
2017-08-22T07:26:38.499Z,74.8
2017-08-22T07:27:37.577Z,75.2
2017-08-22T07:29:36.448Z,75.7
2017-08-22T07:30:35.144Z,75.6
2017-08-22T07:31:34.209Z,75
2017-08-22T07:32:33.799Z,75
2017-08-22T07:34:32.420Z,75.5
2017-08-22T07:35:31.611Z,75.1
2017-08-22T07:36:30.685Z,75.5
2017-08-22T07:37:29.757Z,74.2
2017-08-22T07:38:28.947Z,74.4
2017-08-22T07:39:28.133Z,74.1
2017-08-22T07:40:27.827Z,74.2
2017-08-22T07:41:27.018Z,74.4
2017-08-22T07:42:26.226Z,74.2
2017-08-22T07:43:25.287Z,74.5
2017-08-22T07:44:24.493Z,74.3
2017-08-22T07:45:23.566Z,73.6
2017-08-22T07:46:23.254Z,73.6
2017-08-22T07:46:53.635Z,73.6
2017-08-22T07:47:24.017Z,74
2017-08-22T07:47:54.801Z,74
2017-08-22T07:49:20.656Z,74
2017-08-22T07:50:20.240Z,75.8
2017-08-22T07:51:19.442Z,75.2
2017-08-22T07:52:18.637Z,73.9
2017-08-22T07:53:17.825Z,74.3
2017-08-22T07:54:16.810Z,75.4
2017-08-22T07:55:16.506Z,74.9
2017-08-22T07:56:15.643Z,73.8
2017-08-22T07:57:14.842Z,73.9
2017-08-22T07:58:13.911Z,73.8
2017-08-22T07:59:13.269Z,73.3
2017-08-22T08:00:12.465Z,73.2
2017-08-22T08:01:12.043Z,73.7
2017-08-22T08:02:11.249Z,73.6
2017-08-22T08:03:10.444Z,73.1
2017-08-22T08:04:09.391Z,72.7
2017-08-22T08:05:08.975Z,73.4
2017-08-22T08:08:06.714Z,72.8
2017-08-22T08:09:05.893Z,72.9
2017-08-22T08:10:04.971Z,72.4
2017-08-22T08:11:04.436Z,72.9
2017-08-22T08:12:03.517Z,72.8
2017-08-22T08:13:02.752Z,73
2017-08-22T08:14:02.087Z,72.7
2017-08-22T08:15:01.291Z,72.6
2017-08-22T08:16:00.480Z,72.3
2017-08-22T08:16:59.678Z,72.7
2017-08-22T08:17:59.268Z,72.2
2017-08-22T08:18:58.336Z,71.7
2017-08-22T08:19:57.424Z,72.2
2017-08-22T08:20:57.132Z,71.7
2017-08-22T08:21:56.336Z,71.8
2017-08-22T08:22:55.284Z,71.4
2017-08-22T08:23:54.754Z,72
2017-08-22T08:24:53.957Z,71.4
2017-08-22T08:25:53.159Z,71.4
2017-08-22T08:26:52.627Z,71.8
2017-08-22T08:27:51.812Z,71.3
2017-08-22T08:28:50.898Z,71.1
2017-08-22T08:29:50.236Z,70.5
2017-08-22T08:30:49.698Z,71.2
2017-08-22T08:31:48.653Z,70.6
2017-08-22T08:32:48.238Z,71.1
2017-08-22T08:33:47.432Z,70.8
2017-08-22T08:35:46.062Z,71.1
2017-08-22T08:36:45.250Z,70.6
2017-08-22T08:37:44.594Z,70.9
2017-08-22T08:38:43.669Z,70.6
2017-08-22T08:39:42.864Z,70.7
2017-08-22T08:40:42.444Z,70.7
2017-08-22T08:41:41.525Z,71.1
2017-08-22T08:42:40.734Z,71.2
2017-08-22T08:43:39.918Z,71.8
2017-08-22T08:44:39.502Z,70.5
2017-08-22T08:45:38.693Z,71.3
2017-08-22T08:46:37.881Z,70.7
2017-08-22T08:47:37.473Z,70.2
2017-08-22T08:48:36.580Z,70.5
2017-08-22T08:49:35.668Z,69.7
2017-08-22T08:50:35.256Z,70.7
2017-08-22T08:51:34.318Z,69.3
2017-08-22T08:52:33.393Z,70.1
2017-08-22T08:53:33.095Z,70.1
2017-08-22T08:55:31.675Z,68.8
2017-08-22T08:56:30.747Z,68.7
2017-08-22T08:57:29.810Z,69.6
2017-08-22T08:58:29.382Z,69.1
2017-08-22T08:59:28.596Z,69.7
2017-08-22T09:00:28.089Z,70
2017-08-22T09:01:27.289Z,69.3
2017-08-22T09:02:26.237Z,69.7
2017-08-22T09:03:25.814Z,71.2
2017-08-22T09:04:24.785Z,70.1
2017-08-22T09:05:24.388Z,67.9
2017-08-22T09:06:23.353Z,70.2
2017-08-22T09:08:22.304Z,69
2017-08-22T09:09:21.511Z,69.6
2017-08-22T09:10:20.590Z,68.7
2017-08-22T09:11:20.169Z,68
2017-08-22T09:12:19.245Z,68.3
2017-08-22T09:13:18.814Z,69
2017-08-22T09:14:18.011Z,68.8
2017-08-22T09:15:17.213Z,70.2
2017-08-22T09:16:16.408Z,69.4
2017-08-22T09:17:15.998Z,68.3
2017-08-22T09:18:14.951Z,69.2
2017-08-22T09:19:14.538Z,68.3
2017-08-22T09:20:13.737Z,68.1
2017-08-22T09:21:12.819Z,67.4
2017-08-22T09:22:12.446Z,68.1
2017-08-22T09:23:11.514Z,67.6
2017-08-22T09:24:11.089Z,67.1
2017-08-22T09:25:10.176Z,67.5
2017-08-22T09:25:40.687Z,67.5
2017-08-22T09:26:11.111Z,68.1
2017-08-22T09:26:41.503Z,68.1
2017-08-22T09:27:12.005Z,68.2
2017-08-22T09:28:08.189Z,69.5
2017-08-22T09:29:07.271Z,68.2
2017-08-22T09:30:06.466Z,68.2
2017-08-22T09:31:06.176Z,67.4
2017-08-22T09:32:05.262Z,67.3
2017-08-22T09:33:04.719Z,66.2
2017-08-22T09:34:03.777Z,67.2
2017-08-22T09:35:02.984Z,67.6
2017-08-22T09:36:02.674Z,67.5
2017-08-22T09:37:01.629Z,67.6
2017-08-22T09:38:00.815Z,67.5
2017-08-22T09:39:00.519Z,67.7
2017-08-22T09:39:59.481Z,68.2
2017-08-22T09:40:58.963Z,68.1
2017-08-22T09:41:58.039Z,68.8
2017-08-22T09:42:57.625Z,69
2017-08-22T09:44:55.971Z,68
2017-08-22T09:45:55.544Z,67.4
2017-08-22T09:46:54.609Z,67
2017-08-22T09:47:54.062Z,67.2
2017-08-22T09:48:53.261Z,69
2017-08-22T09:49:52.844Z,68
2017-08-22T09:50:51.928Z,68
2017-08-22T09:51:51.118Z,67.6
2017-08-22T09:52:50.589Z,66.2
2017-08-22T09:53:49.664Z,66.7
2017-08-22T09:54:49.253Z,66.7
2017-08-22T09:55:48.707Z,66.9
2017-08-22T09:56:47.623Z,67
2017-08-22T09:57:47.092Z,66.8
2017-08-22T09:58:46.292Z,66.9
2017-08-22T09:59:45.977Z,67.8
2017-08-22T10:00:45.180Z,66.4
2017-08-22T10:01:44.138Z,67.3
2017-08-22T10:02:43.878Z,67.3
2017-08-22T10:03:43.075Z,66.9
2017-08-22T10:04:42.258Z,67.6
2017-08-22T10:05:41.461Z,66.5
2017-08-22T10:06:41.152Z,66.9
2017-08-22T10:07:40.348Z,67.6
2017-08-22T10:08:39.534Z,67
2017-08-22T10:09:38.731Z,67.3
2017-08-22T10:10:37.929Z,67.4
2017-08-22T10:12:36.901Z,67.7
2017-08-22T10:13:36.085Z,67.3
2017-08-22T10:14:35.279Z,65.9
2017-08-22T10:16:34.257Z,67.3
2017-08-22T10:17:33.479Z,68.2
2017-08-22T10:18:32.547Z,68.5
2017-08-22T10:19:31.738Z,67.7
2017-08-22T10:20:31.327Z,68.3
2017-08-22T10:21:30.789Z,68.2
2017-08-22T10:22:29.756Z,67
2017-08-22T10:23:29.324Z,67.6
2017-08-22T10:24:28.293Z,67.5
2017-08-22T10:25:27.883Z,66.1
2017-08-22T10:27:26.226Z,67.5
2017-08-22T10:28:25.925Z,67.2
2017-08-22T10:29:25.121Z,67.6
2017-08-22T10:30:24.322Z,66.8
2017-08-22T10:31:23.532Z,66.4
2017-08-22T10:32:23.231Z,66.8
2017-08-22T10:33:22.316Z,66.7
2017-08-22T10:34:21.375Z,66.8
2017-08-22T10:35:20.955Z,66.2
2017-08-22T10:36:20.159Z,66.5
2017-08-22T10:37:19.354Z,66.5
2017-08-22T10:38:19.060Z,66.5
2017-08-22T10:39:18.148Z,66.6
2017-08-22T10:40:17.338Z,66.1
2017-08-22T10:41:17.037Z,66.9
2017-08-22T10:42:16.124Z,64.2
2017-08-22T10:43:15.350Z,65
2017-08-22T10:44:14.537Z,65
2017-08-22T10:45:13.992Z,65.2
2017-08-22T10:46:13.183Z,63.6
2017-08-22T10:47:12.756Z,64
2017-08-22T10:48:12.222Z,63.6
2017-08-22T10:49:11.425Z,64.1
2017-08-22T10:50:10.496Z,63.6
2017-08-22T10:51:10.067Z,63.9
2017-08-22T10:52:09.140Z,63.6
2017-08-22T10:53:08.847Z,63.5
2017-08-22T10:54:08.053Z,62.3
2017-08-22T10:55:07.167Z,63.1
2017-08-22T10:56:06.736Z,63.1
2017-08-22T10:57:05.697Z,61.6
2017-08-22T10:58:05.038Z,62.7
2017-08-22T10:59:04.563Z,63.1
2017-08-22T11:00:03.637Z,63.7
2017-08-22T11:01:02.867Z,63.5
2017-08-22T11:02:02.451Z,63.8
2017-08-22T11:03:01.656Z,64
2017-08-22T11:04:01.247Z,64.3
2017-08-22T11:05:00.325Z,65
2017-08-22T11:05:59.903Z,64.6
2017-08-22T11:06:58.970Z,63.9
2017-08-22T11:07:58.659Z,63.4
2017-08-22T11:08:57.620Z,63.8
2017-08-22T11:09:57.206Z,63.6
2017-08-22T11:10:56.298Z,63.2
2017-08-22T11:11:55.507Z,63.4
2017-08-22T11:12:55.076Z,63.3
2017-08-22T11:13:54.159Z,63.3
2017-08-22T11:14:53.734Z,63.5
2017-08-22T11:15:52.937Z,62.2
2017-08-22T11:16:52.127Z,62.4
2017-08-22T11:17:51.839Z,62.3
2017-08-22T11:18:51.041Z,62.3
2017-08-22T11:19:50.244Z,61.4
2017-08-22T11:20:49.435Z,61.6
2017-08-22T11:21:49.125Z,61.6
2017-08-22T11:22:48.322Z,61.7
2017-08-22T11:23:47.506Z,62.2
2017-08-22T11:24:47.194Z,62.2
2017-08-22T11:25:46.377Z,62.1
2017-08-22T11:27:44.729Z,59.5
2017-08-22T11:28:44.324Z,59.5
2017-08-22T11:29:43.270Z,60.2
2017-08-22T11:31:42.373Z,60.5
2017-08-22T11:32:41.837Z,57.9
2017-08-22T11:33:40.916Z,58.2
2017-08-22T11:34:40.109Z,58.7
2017-08-22T11:35:39.822Z,57.3
2017-08-22T11:36:38.897Z,58.1
2017-08-22T11:37:38.093Z,57.6
2017-08-22T11:38:37.815Z,58.1
2017-08-22T11:40:36.281Z,59
2017-08-22T11:41:35.474Z,59.4
2017-08-22T11:43:34.055Z,59.3
2017-08-22T11:44:33.512Z,59.8
2017-08-22T11:45:33.205Z,59.7
2017-08-22T11:46:32.281Z,60.5
2017-08-22T11:47:31.733Z,60.4
2017-08-22T11:48:30.809Z,58.9
2017-08-22T11:49:30.269Z,59
2017-08-22T11:50:29.464Z,58.8
2017-08-22T11:51:29.045Z,59.9
2017-08-22T11:52:28.244Z,57.9
2017-08-22T11:53:27.711Z,58.1
2017-08-22T11:54:26.789Z,57.7
2017-08-22T11:55:26.251Z,55.8
2017-08-22T11:56:25.438Z,55.3
2017-08-22T11:57:25.129Z,55.3
2017-08-22T11:58:24.304Z,55.6
2017-08-22T11:59:23.512Z,55.6
2017-08-22T12:01:22.595Z,54.7
2017-08-22T12:02:21.660Z,55.1
2017-08-22T12:03:20.842Z,55
2017-08-22T12:04:20.430Z,54.8
2017-08-22T12:05:19.620Z,52.5
2017-08-22T12:06:18.875Z,53.6
2017-08-22T12:07:18.560Z,54.4
2017-08-22T12:08:17.748Z,54.8
2017-08-22T12:09:16.943Z,55.2
2017-08-22T12:10:16.641Z,55.3
2017-08-22T12:11:15.712Z,53.5
2017-08-22T12:12:15.292Z,53.9
2017-08-22T12:13:14.384Z,54.3
2017-08-22T12:14:13.592Z,49.9
2017-08-22T12:15:13.300Z,50.1
2017-08-22T12:16:12.498Z,49.7
2017-08-22T12:17:11.965Z,50.4
2017-08-22T12:18:11.041Z,49.5
2017-08-22T12:19:10.729Z,49.5
2017-08-22T12:20:09.569Z,49.5
2017-08-22T12:22:08.534Z,49.7
2017-08-22T12:24:07.111Z,50.6
2017-08-22T12:25:06.687Z,51.2
2017-08-22T12:27:05.540Z,51.5
2017-08-22T12:28:04.728Z,50.6
2017-08-22T12:29:04.193Z,51.4
2017-08-22T12:30:03.266Z,50.4
2017-08-22T12:31:02.461Z,50.5
2017-08-22T12:32:02.043Z,49.9
2017-08-22T12:33:01.234Z,50
2017-08-22T12:34:00.927Z,49.8
2017-08-22T12:35:00.136Z,49.3
2017-08-22T12:35:59.349Z,49.3
2017-08-22T12:36:59.047Z,48.8
2017-08-22T12:37:58.132Z,47.2
2017-08-22T12:38:57.338Z,48
2017-08-22T12:40:56.426Z,45.1
2017-08-22T12:41:55.617Z,46.2
2017-08-22T12:42:55.202Z,46.3
2017-08-22T12:43:25.602Z,46.3
2017-08-22T12:44:53.873Z,48.4
2017-08-22T12:45:53.339Z,47
2017-08-22T12:48:51.313Z,48.2
2017-08-22T12:50:49.878Z,49
2017-08-22T12:51:48.949Z,49.3
2017-08-22T12:52:48.523Z,50.1
2017-08-22T12:53:48.117Z,51.6
2017-08-22T12:54:47.313Z,51.2
2017-08-22T12:55:46.913Z,50.3
2017-08-22T12:56:46.098Z,49.7
2017-08-22T12:58:44.682Z,50.3
2017-08-22T12:59:44.150Z,51.3
2017-08-22T13:00:43.619Z,50.6
2017-08-22T13:01:42.809Z,49.8
2017-08-22T13:02:42.393Z,50.7
2017-08-22T13:03:41.585Z,50.4
2017-08-22T13:04:41.297Z,49.7
2017-08-22T13:05:40.502Z,50
2017-08-22T13:06:39.709Z,49
2017-08-22T13:07:39.292Z,49.4
2017-08-22T13:08:38.246Z,48.6
2017-08-22T13:09:37.940Z,49
2017-08-22T13:10:37.271Z,48.5
2017-08-22T13:11:36.850Z,48.8
2017-08-22T13:12:36.050Z,49.4
2017-08-22T13:13:35.132Z,48.2
2017-08-22T13:14:34.712Z,49.4
2017-08-22T13:15:33.911Z,48.1
2017-08-22T13:16:33.614Z,48.6
2017-08-22T13:17:32.805Z,47.3
2017-08-22T13:18:31.930Z,46.2
2017-08-22T13:19:31.520Z,45.2
2017-08-22T13:20:30.728Z,46.1
2017-08-22T13:21:30.428Z,46.6
2017-08-22T13:22:29.497Z,45.9
2017-08-22T13:23:29.090Z,46.5
2017-08-22T13:24:28.282Z,46.4
2017-08-22T13:25:27.859Z,45.8
2017-08-22T13:26:26.926Z,46.8
2017-08-22T13:27:26.505Z,45.8
2017-08-22T13:28:26.082Z,45.2
2017-08-22T13:29:25.279Z,45.7
2017-08-22T13:30:24.859Z,45.2
2017-08-22T13:31:24.055Z,45.4
2017-08-22T13:32:23.525Z,44.8
2017-08-22T13:33:22.711Z,44.9
2017-08-22T13:34:21.910Z,45
2017-08-22T13:35:21.605Z,43
2017-08-22T13:36:20.817Z,42.7
2017-08-22T13:36:51.321Z,42.7
2017-08-22T13:38:19.455Z,42
2017-08-22T13:39:19.153Z,41.9
2017-08-22T13:40:18.380Z,41.8
2017-08-22T13:41:17.452Z,41.8
2017-08-22T13:42:17.023Z,43.3
2017-08-22T13:43:16.598Z,42.8
2017-08-22T13:44:15.815Z,42.2
2017-08-22T13:45:15.380Z,42.3
2017-08-22T13:46:14.572Z,41.1
2017-08-22T13:48:13.660Z,42